Time;durP1;ratioP1;P1;durP2;ratioP2;P2;SDS_P1;SDS_P2;PMS_P1;PMS_P2;Temp;Humidity;BMP_temperature;BMP_pressure;BME280_temperature;BME280_humidity;BME280_pressure;Samples;Min_cycle;Max_cycle;Signal;HPM_P1;HPM_P2
2023/09/11 00:01:53;;;;;;;;;;;26.50;60.40;;;;;;5024660;28;43970;-87
2023/09/11 00:04:18;;;;;;;;;;;26.50;60.00;;;;;;5026441;28;42871;-89
2023/09/11 00:06:44;;;;;;;;;;;26.40;60.60;;;;;;5025871;28;43779;-81
2023/09/11 00:09:09;;;;;;;;;;;26.50;60.20;;;;;;5025581;28;42788;-86
2023/09/11 00:11:35;;;;;;;;;;;26.30;60.80;;;;;;5026303;28;42937;-88
2023/09/11 00:14:00;;;;;;;;;;;26.30;60.90;;;;;;5026208;28;42930;-82
2023/09/11 00:16:26;;;;;;;;;;;26.40;60.90;;;;;;5026329;28;43606;-88
2023/09/11 00:18:56;;;;;;;;;;;26.40;61.00;;;;;;5026275;28;43029;-87
2023/09/11 00:21:22;;;;;;;;;;;26.40;61.00;;;;;;5025972;28;42936;-84
2023/09/11 00:23:47;;;;;;;;;;;26.40;61.20;;;;;;5026124;28;42955;-87
2023/09/11 00:26:13;;;;;;;;;;;26.20;61.10;;;;;;5025210;28;42966;-81
2023/09/11 00:28:38;;;;;;;;;;;26.20;61.30;;;;;;5025694;28;43169;-88
2023/09/11 00:31:04;;;;;;;;;;;26.30;61.30;;;;;;5024663;28;44374;-88
2023/09/11 00:33:29;;;;;;;;;;;26.40;61.50;;;;;;5024711;28;42978;-89
2023/09/11 00:35:55;;;;;;;;;;;26.30;61.30;;;;;;5025473;28;43472;-87
2023/09/11 00:38:20;;;;;;;;;;;26.20;61.30;;;;;;5025401;28;43036;-87
2023/09/11 00:40:46;;;;;;;;;;;26.30;61.40;;;;;;5026019;28;42888;-88
2023/09/11 00:43:11;;;;;;;;;;;26.20;61.90;;;;;;5025896;28;42865;-89
2023/09/11 00:45:37;;;;;;;;;;;26.20;61.40;;;;;;5025932;28;43733;-87
2023/09/11 00:48:03;;;;;;;;;;;25.90;61.10;;;;;;5024517;28;43090;-88
2023/09/11 00:50:28;;;;;;;;;;;26.20;60.80;;;;;;5025214;28;44404;-86
2023/09/11 00:52:54;;;;;;;;;;;26.00;61.20;;;;;;5025847;28;43089;-86
2023/09/11 00:55:20;;;;;;;;;;;26.20;61.50;;;;;;5025828;28;43868;-89
2023/09/11 00:57:45;;;;;;;;;;;25.90;61.10;;;;;;5025936;28;42981;-87
2023/09/11 01:00:12;;;;;;;;;;;26.00;61.20;;;;;;5025692;28;43723;-87
2023/09/11 01:02:37;;;;;;;;;;;25.90;60.60;;;;;;5025577;28;42883;-87
2023/09/11 01:05:07;;;;;;;;;;;26.00;61.40;;;;;;5025515;28;43534;-87
2023/09/11 01:07:33;;;;;;;;;;;25.90;60.90;;;;;;5025626;28;43087;-88
2023/09/11 01:09:59;;;;;;;;;;;26.10;61.50;;;;;;5025641;28;43676;-88
2023/09/11 01:12:25;;;;;;;;;;;26.10;61.50;;;;;;5025287;28;43569;-89
2023/09/11 01:14:50;;;;;;;;;;;26.10;61.70;;;;;;5025631;28;42958;-80
2023/09/11 01:17:24;;;;;;;;;;;25.90;61.30;;;;;;5025223;28;43160;-81
2023/09/11 01:19:52;;;;;;;;;;;26.00;59.20;;;;;;5024901;28;43814;-86
2023/09/11 01:22:23;;;;;;;;;;;25.80;59.30;;;;;;5024494;28;42923;-88
2023/09/11 01:25:06;;;;;;;;;;;25.80;59.10;;;;;;5024781;28;42978;-88
2023/09/11 01:27:44;;;;;;;;;;;25.90;59.20;;;;;;5025291;28;42837;-87
2023/09/11 01:30:10;;;;;;;;;;;25.80;59.10;;;;;;5024919;28;43716;-89
2023/09/11 01:32:36;;;;;;;;;;;25.80;61.40;;;;;;5024897;28;42888;-88
2023/09/11 01:35:02;;;;;;;;;;;25.70;61.50;;;;;;5025042;28;43604;-89
2023/09/11 01:37:30;;;;;;;;;;;25.80;60.90;;;;;;5025357;28;42914;-89
2023/09/11 01:39:55;;;;;;;;;;;25.90;61.50;;;;;;5025072;28;43357;-86
2023/09/11 01:42:24;;;;;;;;;;;25.80;61.40;;;;;;5025298;28;42914;-88
2023/09/11 01:44:50;;;;;;;;;;;25.80;61.40;;;;;;5024838;28;42989;-87
2023/09/11 01:47:21;;;;;;;;;;;25.70;61.30;;;;;;5025265;28;43013;-82
2023/09/11 01:49:47;;;;;;;;;;;25.80;59.20;;;;;;5025065;28;42817;-90
2023/09/11 01:52:13;;;;;;;;;;;26.00;61.60;;;;;;5024954;28;43063;-84
2023/09/11 01:54:39;;;;;;;;;;;25.90;61.40;;;;;;5023277;28;43556;-88
2023/09/11 01:57:05;;;;;;;;;;;25.90;61.30;;;;;;5025116;28;42965;-82
2023/09/11 01:59:31;;;;;;;;;;;25.90;61.30;;;;;;5024890;28;43798;-89
2023/09/11 02:01:56;;;;;;;;;;;25.80;61.20;;;;;;5024772;28;43044;-88
2023/09/11 02:04:22;;;;;;;;;;;25.70;61.10;;;;;;5024571;28;43535;-83
2023/09/11 02:06:47;;;;;;;;;;;25.70;60.80;;;;;;5025053;28;42997;-86
2023/09/11 02:09:13;;;;;;;;;;;25.80;61.20;;;;;;5023868;28;43196;-88
2023/09/11 02:11:38;;;;;;;;;;;25.70;61.30;;;;;;5024663;28;42904;-88
2023/09/11 02:14:04;;;;;;;;;;;25.70;61.00;;;;;;5024547;28;43721;-88
2023/09/11 02:16:29;;;;;;;;;;;25.60;61.00;;;;;;5024209;28;42983;-86
2023/09/11 02:18:55;;;;;;;;;;;25.60;61.00;;;;;;5024180;28;43579;-88
2023/09/11 02:21:21;;;;;;;;;;;25.60;61.00;;;;;;5024723;28;42825;-83
2023/09/11 02:23:46;;;;;;;;;;;25.70;61.00;;;;;;5025085;28;42994;-86
2023/09/11 02:26:12;;;;;;;;;;;25.60;61.20;;;;;;5024476;28;43008;-87
2023/09/11 02:28:37;;;;;;;;;;;25.70;61.20;;;;;;5024651;28;42882;-85
2023/09/11 02:31:03;;;;;;;;;;;25.60;61.20;;;;;;5024891;28;42948;-89
2023/09/11 02:33:28;;;;;;;;;;;25.60;61.20;;;;;;5024385;28;43656;-88
2023/09/11 02:35:54;;;;;;;;;;;25.50;61.20;;;;;;5024705;28;43166;-85
2023/09/11 02:38:20;;;;;;;;;;;26.00;61.70;;;;;;5024189;28;43491;-88
2023/09/11 02:40:46;;;;;;;;;;;25.60;61.30;;;;;;5024231;28;42914;-85
2023/09/11 02:43:11;;;;;;;;;;;25.60;61.40;;;;;;5023843;28;42959;-89
2023/09/11 02:45:37;;;;;;;;;;;25.40;61.20;;;;;;5024209;28;42865;-89
2023/09/11 02:48:02;;;;;;;;;;;25.40;61.50;;;;;;5024020;28;43816;-86
2023/09/11 02:50:28;;;;;;;;;;;25.60;61.40;;;;;;5022474;28;43063;-80
2023/09/11 02:52:53;;;;;;;;;;;25.50;61.60;;;;;;5023640;28;42996;-85
2023/09/11 02:55:19;;;;;;;;;;;25.50;61.70;;;;;;5023831;28;42973;-84
2023/09/11 02:57:44;;;;;;;;;;;24.90;61.10;;;;;;5024048;28;43776;-85
2023/09/11 03:00:10;;;;;;;;;;;25.50;61.70;;;;;;5024037;28;42917;-88
2023/09/11 03:02:35;;;;;;;;;;;25.40;61.10;;;;;;5023485;28;43432;-88
2023/09/11 03:05:01;;;;;;;;;;;25.40;61.70;;;;;;5024937;28;42946;-89
2023/09/11 03:07:26;;;;;;;;;;;25.40;61.60;;;;;;5027497;28;42928;-82
2023/09/11 03:09:52;;;;;;;;;;;25.60;61.70;;;;;;5027865;28;42945;-87
2023/09/11 03:12:17;;;;;;;;;;;25.50;61.50;;;;;;5026921;28;43009;-87
2023/09/11 03:14:43;;;;;;;;;;;25.40;61.50;;;;;;5026847;28;42899;-86
2023/09/11 03:17:10;;;;;;;;;;;25.50;61.60;;;;;;5026790;28;42912;-88
2023/09/11 03:19:36;;;;;;;;;;;25.40;61.50;;;;;;5027326;28;42901;-81
2023/09/11 03:22:02;;;;;;;;;;;25.40;60.90;;;;;;5026813;28;43732;-82
2023/09/11 03:24:28;;;;;;;;;;;25.30;61.20;;;;;;5027105;28;42861;-87
2023/09/11 03:26:53;;;;;;;;;;;25.60;61.50;;;;;;5026972;28;42915;-83
2023/09/11 03:29:19;;;;;;;;;;;25.40;60.80;;;;;;5027039;28;42923;-86
2023/09/11 03:31:44;;;;;;;;;;;25.40;60.80;;;;;;5026922;28;42948;-87
2023/09/11 03:34:10;;;;;;;;;;;25.30;61.40;;;;;;5026863;28;42950;-88
2023/09/11 03:36:35;;;;;;;;;;;25.50;61.30;;;;;;5027099;28;42902;-87
2023/09/11 03:39:01;;;;;;;;;;;25.30;61.20;;;;;;5027096;28;42944;-88
2023/09/11 03:41:27;;;;;;;;;;;25.20;60.60;;;;;;5027100;28;43919;-88
2023/09/11 03:43:52;;;;;;;;;;;25.20;61.20;;;;;;5026987;28;43004;-89
2023/09/11 03:46:18;;;;;;;;;;;25.40;61.30;;;;;;5026882;28;42915;-89
2023/09/11 03:48:43;;;;;;;;;;;25.20;61.70;;;;;;5024088;28;43002;-89
2023/09/11 03:51:09;;;;;;;;;;;25.20;61.60;;;;;;5026751;28;42892;-89
2023/09/11 03:53:34;;;;;;;;;;;25.30;61.60;;;;;;5025666;28;43013;-88
2023/09/11 03:56:00;;;;;;;;;;;25.30;61.70;;;;;;5026910;28;43072;-87
2023/09/11 03:58:25;;;;;;;;;;;25.40;61.60;;;;;;5026912;28;42988;-89
2023/09/11 04:00:51;;;;;;;;;;;25.20;61.60;;;;;;5026142;28;42985;-87
2023/09/11 04:03:16;;;;;;;;;;;25.20;61.30;;;;;;5026175;28;42996;-89
2023/09/11 04:05:42;;;;;;;;;;;25.20;61.30;;;;;;5025046;28;44916;-85
2023/09/11 04:08:08;;;;;;;;;;;25.40;61.20;;;;;;5026460;28;42987;-88
2023/09/11 04:10:34;;;;;;;;;;;25.50;61.20;;;;;;5026149;28;43199;-88
2023/09/11 04:12:59;;;;;;;;;;;25.30;61.20;;;;;;5026026;28;42977;-89
2023/09/11 04:15:25;;;;;;;;;;;25.80;61.60;;;;;;5025966;28;43811;-87
2023/09/11 04:17:54;;;;;;;;;;;25.40;60.50;;;;;;5024798;28;43191;-85
2023/09/11 04:20:20;;;;;;;;;;;25.30;61.10;;;;;;5024384;28;42985;-89
2023/09/11 04:22:46;;;;;;;;;;;25.10;61.10;;;;;;5023868;28;43012;-89
2023/09/11 04:25:12;;;;;;;;;;;25.30;61.20;;;;;;5026394;28;43590;-88
2023/09/11 04:27:37;;;;;;;;;;;25.30;60.70;;;;;;5026432;28;43009;-88
2023/09/11 04:30:03;;;;;;;;;;;25.30;60.60;;;;;;5024790;28;44330;-89
2023/09/11 04:32:30;;;;;;;;;;;25.20;60.60;;;;;;5026708;28;42857;-78
2023/09/11 04:34:55;;;;;;;;;;;25.10;61.50;;;;;;5024793;28;43240;-89
2023/09/11 04:37:21;;;;;;;;;;;25.20;61.50;;;;;;5025571;28;42886;-82
2023/09/11 04:39:47;;;;;;;;;;;25.30;61.30;;;;;;5024139;28;43143;-89
2023/09/11 04:42:12;;;;;;;;;;;25.30;61.30;;;;;;5024811;28;42912;-87
2023/09/11 04:44:37;;;;;;;;;;;25.40;61.80;;;;;;5026277;28;42941;-89
2023/09/11 04:47:03;;;;;;;;;;;25.20;60.80;;;;;;5025853;28;42890;-88
2023/09/11 04:49:29;;;;;;;;;;;25.30;61.40;;;;;;5025733;28;42875;-89
2023/09/11 04:51:54;;;;;;;;;;;25.20;60.90;;;;;;5024371;28;42883;-88
2023/09/11 04:54:20;;;;;;;;;;;25.20;61.30;;;;;;5025477;28;42977;-88
2023/09/11 04:56:45;;;;;;;;;;;25.20;61.50;;;;;;5025261;28;43024;-86
2023/09/11 04:59:11;;;;;;;;;;;25.10;60.80;;;;;;5025001;28;43765;-89
2023/09/11 05:01:36;;;;;;;;;;;24.90;61.20;;;;;;5025711;28;42977;-87
2023/09/11 05:04:03;;;;;;;;;;;25.10;61.30;;;;;;5024814;28;43475;-80
2023/09/11 05:06:28;;;;;;;;;;;25.10;60.70;;;;;;5024566;28;42902;-86
2023/09/11 05:08:55;;;;;;;;;;;25.40;61.60;;;;;;5024881;28;42955;-85
2023/09/11 05:11:20;;;;;;;;;;;25.00;60.90;;;;;;5024119;28;42896;-85
2023/09/11 05:13:46;;;;;;;;;;;25.30;60.50;;;;;;5021597;28;42994;-84
2023/09/11 05:16:12;;;;;;;;;;;25.20;60.40;;;;;;5024310;28;43257;-82
2023/09/11 05:18:37;;;;;;;;;;;25.30;61.10;;;;;;5023399;28;45621;-84
2023/09/11 05:21:03;;;;;;;;;;;25.20;60.50;;;;;;5023051;28;44292;-83
2023/09/11 05:23:29;;;;;;;;;;;25.30;61.00;;;;;;5021977;28;43005;-86
2023/09/11 05:25:54;;;;;;;;;;;25.20;61.00;;;;;;5024854;28;42981;-80
2023/09/11 05:28:20;;;;;;;;;;;25.30;61.00;;;;;;5024417;28;43367;-81
2023/09/11 05:30:45;;;;;;;;;;;25.40;61.00;;;;;;5024301;28;43219;-81
2023/09/11 05:33:11;;;;;;;;;;;25.40;61.00;;;;;;5023473;28;43058;-85
2023/09/11 05:35:36;;;;;;;;;;;25.60;60.20;;;;;;5022497;28;42926;-83
2023/09/11 05:38:02;;;;;;;;;;;25.80;60.90;;;;;;5023815;28;43399;-86
2023/09/11 05:40:27;;;;;;;;;;;25.80;60.60;;;;;;5024055;28;42956;-84
2023/09/11 05:42:53;;;;;;;;;;;25.70;60.90;;;;;;5024072;28;43816;-80
2023/09/11 05:45:18;;;;;;;;;;;25.60;60.90;;;;;;5023880;28;42846;-81
2023/09/11 05:47:44;;;;;;;;;;;25.60;60.50;;;;;;5022901;28;42899;-84
2023/09/11 05:50:11;;;;;;;;;;;25.60;61.10;;;;;;5022238;28;43030;-83
2023/09/11 05:52:36;;;;;;;;;;;25.60;60.80;;;;;;5023710;28;43349;-84
2023/09/11 05:55:02;;;;;;;;;;;25.60;61.50;;;;;;5023982;28;43206;-81
2023/09/11 05:57:28;;;;;;;;;;;25.60;61.50;;;;;;5022268;28;43001;-83
2023/09/11 05:59:53;;;;;;;;;;;25.60;61.40;;;;;;5023848;28;42876;-84
2023/09/11 06:02:19;;;;;;;;;;;25.60;61.60;;;;;;5023731;28;43636;-84
2023/09/11 06:04:45;;;;;;;;;;;25.50;61.40;;;;;;5022107;28;43102;-81
2023/09/11 06:07:11;;;;;;;;;;;25.60;61.00;;;;;;5023371;28;43630;-82
2023/09/11 06:09:37;;;;;;;;;;;25.80;61.90;;;;;;5024392;28;43017;-84
2023/09/11 06:12:03;;;;;;;;;;;25.80;62.20;;;;;;5023635;28;42927;-85
2023/09/11 06:14:28;;;;;;;;;;;25.20;61.30;;;;;;5023823;28;42854;-85
2023/09/11 06:16:54;;;;;;;;;;;25.60;62.50;;;;;;5023996;28;42944;-84
2023/09/11 06:19:19;;;;;;;;;;;25.80;62.00;;;;;;5021039;28;43251;-86
2023/09/11 06:21:45;;;;;;;;;;;25.90;62.60;;;;;;5023449;28;43508;-85
2023/09/11 06:24:11;;;;;;;;;;;25.80;62.70;;;;;;5022893;28;42792;-86
2023/09/11 06:26:36;;;;;;;;;;;25.90;62.40;;;;;;5023056;28;43901;-85
2023/09/11 06:29:02;;;;;;;;;;;25.90;62.10;;;;;;5024427;28;42943;-81
2023/09/11 06:31:28;;;;;;;;;;;25.80;62.00;;;;;;5006587;28;42952;-82
2023/09/11 06:33:54;;;;;;;;;;;26.00;62.20;;;;;;5022630;28;42942;-82
2023/09/11 06:36:19;;;;;;;;;;;26.00;61.90;;;;;;5019959;28;43083;-84
2023/09/11 06:38:45;;;;;;;;;;;25.90;61.50;;;;;;5023070;28;42988;-80
2023/09/11 06:41:10;;;;;;;;;;;26.20;61.40;;;;;;5023757;28;43186;-84
2023/09/11 06:43:37;;;;;;;;;;;26.00;61.10;;;;;;5026917;28;43340;-84
2023/09/11 06:46:03;;;;;;;;;;;26.10;61.00;;;;;;5026654;28;43007;-83
2023/09/11 06:48:28;;;;;;;;;;;26.00;60.60;;;;;;5025999;28;43013;-79
2023/09/11 06:50:54;;;;;;;;;;;26.00;60.60;;;;;;5026605;28;43688;-81
2023/09/11 06:53:20;;;;;;;;;;;26.10;60.60;;;;;;5027660;28;42915;-82
2023/09/11 06:55:46;;;;;;;;;;;26.10;60.00;;;;;;5027188;28;43853;-85
2023/09/11 06:58:14;;;;;;;;;;;26.20;60.60;;;;;;5025880;28;59943;-81
2023/09/11 07:00:40;;;;;;;;;;;26.30;60.40;;;;;;5024651;28;43622;-84
2023/09/11 07:03:05;;;;;;;;;;;26.50;60.10;;;;;;5025893;28;43054;-83
2023/09/11 07:05:31;;;;;;;;;;;26.30;59.90;;;;;;5026767;28;43543;-80
2023/09/11 07:07:56;;;;;;;;;;;26.20;60.50;;;;;;5026468;28;43086;-82
2023/09/11 07:10:22;;;;;;;;;;;26.30;60.50;;;;;;5026815;28;42997;-79
2023/09/11 07:12:49;;;;;;;;;;;26.20;60.30;;;;;;5026146;28;42917;-83
2023/09/11 07:15:15;;;;;;;;;;;26.30;60.30;;;;;;5026279;28;43550;-81
2023/09/11 07:17:41;;;;;;;;;;;26.50;60.40;;;;;;5024866;28;44313;-81
2023/09/11 07:20:06;;;;;;;;;;;26.50;60.30;;;;;;5026429;28;43665;-85
2023/09/11 07:22:32;;;;;;;;;;;26.30;59.50;;;;;;5024843;28;42910;-81
2023/09/11 07:24:58;;;;;;;;;;;27.00;61.00;;;;;;5024977;28;45001;-82
2023/09/11 07:27:26;;;;;;;;;;;26.20;60.00;;;;;;5026617;28;42883;-85
2023/09/11 07:29:51;;;;;;;;;;;26.40;60.40;;;;;;5021785;28;43392;-81
2023/09/11 07:32:17;;;;;;;;;;;26.50;60.40;;;;;;5026182;28;43004;-82
2023/09/11 07:34:43;;;;;;;;;;;26.40;60.40;;;;;;5026439;28;43619;-80
2023/09/11 07:37:08;;;;;;;;;;;26.50;60.50;;;;;;5026702;28;43158;-81
2023/09/11 07:39:34;;;;;;;;;;;26.30;60.20;;;;;;5026759;28;42954;-81
2023/09/11 07:42:00;;;;;;;;;;;26.60;60.40;;;;;;5026419;28;43052;-80
2023/09/11 07:44:25;;;;;;;;;;;26.40;60.20;;;;;;5025870;28;43357;-80
2023/09/11 07:46:51;;;;;;;;;;;26.70;60.70;;;;;;5026601;28;42894;-81
2023/09/11 07:49:16;;;;;;;;;;;26.40;60.20;;;;;;5026376;28;42965;-81
2023/09/11 07:51:42;;;;;;;;;;;26.30;60.00;;;;;;5022488;28;43379;-79
2023/09/11 07:54:07;;;;;;;;;;;26.40;60.20;;;;;;5025495;28;43202;-79
2023/09/11 07:56:33;;;;;;;;;;;26.50;60.20;;;;;;5026264;28;42852;-79
2023/09/11 07:59:00;;;;;;;;;;;26.30;60.10;;;;;;5025950;28;43292;-81
2023/09/11 08:01:26;;;;;;;;;;;26.50;60.20;;;;;;5025671;28;42877;-79
2023/09/11 08:03:51;;;;;;;;;;;26.40;60.10;;;;;;5026457;28;42894;-81
2023/09/11 08:06:18;;;;;;;;;;;26.50;60.10;;;;;;5025944;28;42897;-82
2023/09/11 08:08:44;;;;;;;;;;;26.50;60.10;;;;;;5026156;28;43020;-82
2023/09/11 08:11:16;;;;;;;;;;;26.40;60.00;;;;;;5026192;28;42997;-79
2023/09/11 08:13:42;;;;;;;;;;;26.50;58.00;;;;;;5026409;28;42775;-80
2023/09/11 08:16:08;;;;;;;;;;;26.50;60.10;;;;;;5026664;28;43013;-79
2023/09/11 08:18:34;;;;;;;;;;;26.60;60.10;;;;;;5026757;28;42816;-81
2023/09/11 08:21:00;;;;;;;;;;;26.50;59.90;;;;;;5026394;28;42938;-81
2023/09/11 08:23:25;;;;;;;;;;;26.50;59.90;;;;;;5026209;28;43673;-79
2023/09/11 08:25:57;;;;;;;;;;;26.50;59.80;;;;;;5026190;28;42799;-82
2023/09/11 08:28:23;;;;;;;;;;;26.50;57.80;;;;;;5026006;28;42961;-82
2023/09/11 08:30:51;;;;;;;;;;;26.60;59.90;;;;;;5026039;28;43124;-80
2023/09/11 08:33:17;;;;;;;;;;;26.60;59.80;;;;;;5026163;28;42978;-79
2023/09/11 08:35:43;;;;;;;;;;;26.60;59.80;;;;;;5026242;28;42803;-81
2023/09/11 08:38:08;;;;;;;;;;;26.60;59.80;;;;;;5025948;28;43576;-81
2023/09/11 08:40:34;;;;;;;;;;;26.60;59.70;;;;;;5026534;28;42931;-81
2023/09/11 08:42:59;;;;;;;;;;;26.60;59.90;;;;;;5026330;28;43019;-81
2023/09/11 08:45:26;;;;;;;;;;;26.60;59.90;;;;;;5025979;28;42869;-82
2023/09/11 08:47:54;;;;;;;;;;;26.60;60.00;;;;;;5025953;28;43067;-81
2023/09/11 08:50:22;;;;;;;;;;;26.60;60.00;;;;;;5025701;28;42788;-82
2023/09/11 08:52:48;;;;;;;;;;;26.30;59.70;;;;;;5026180;28;43394;-80
2023/09/11 08:55:17;;;;;;;;;;;26.70;60.20;;;;;;5026129;28;43026;-79
2023/09/11 08:57:43;;;;;;;;;;;26.80;60.40;;;;;;5025887;28;43053;-83
2023/09/11 09:00:09;;;;;;;;;;;26.70;60.80;;;;;;5026166;28;42957;-81
2023/09/11 09:02:35;;;;;;;;;;;26.80;60.00;;;;;;5025500;28;42879;-79
2023/09/11 09:05:04;;;;;;;;;;;26.90;60.30;;;;;;5026004;28;43068;-82
2023/09/11 09:07:31;;;;;;;;;;;26.70;60.20;;;;;;5025719;28;43051;-83
2023/09/11 09:09:57;;;;;;;;;;;26.60;60.00;;;;;;5025818;28;42905;-82
2023/09/11 09:12:23;;;;;;;;;;;26.70;59.70;;;;;;5025304;28;42907;-81
2023/09/11 09:14:49;;;;;;;;;;;26.70;60.30;;;;;;5025083;28;43076;-82
2023/09/11 09:17:15;;;;;;;;;;;26.80;60.30;;;;;;5025632;28;44358;-79
2023/09/11 09:19:40;;;;;;;;;;;26.80;60.70;;;;;;5025800;28;42780;-82
2023/09/11 09:22:05;;;;;;;;;;;26.80;59.90;;;;;;5025736;28;42796;-81
2023/09/11 09:24:31;;;;;;;;;;;27.00;60.80;;;;;;5025640;28;42966;-82
2023/09/11 09:27:01;;;;;;;;;;;26.80;60.50;;;;;;5024833;28;42872;-82
2023/09/11 09:29:32;;;;;;;;;;;26.90;60.80;;;;;;5025520;28;43013;-83
2023/09/11 09:31:59;;;;;;;;;;;26.90;60.80;;;;;;5025326;28;43673;-81
2023/09/11 09:34:25;;;;;;;;;;;26.80;60.80;;;;;;5025709;28;42981;-83
2023/09/11 09:36:51;;;;;;;;;;;26.90;61.10;;;;;;5025248;28;43411;-82
2023/09/11 09:39:17;;;;;;;;;;;26.90;61.20;;;;;;5025181;28;42923;-82
2023/09/11 09:41:56;;;;;;;;;;;27.00;61.20;;;;;;5025489;28;42949;-79
2023/09/11 09:44:35;;;;;;;;;;;26.80;59.00;;;;;;5025404;28;42823;-82
2023/09/11 09:47:08;;;;;;;;;;;26.90;59.20;;;;;;5025123;28;42926;-80
2023/09/11 09:49:43;;;;;;;;;;;27.10;59.20;;;;;;5024952;28;42958;-82
2023/09/11 09:52:08;;;;;;;;;;;26.70;59.10;;;;;;5024840;28;43389;-82
2023/09/11 09:54:41;;;;;;;;;;;26.90;62.00;;;;;;5025320;28;43051;-79
2023/09/11 09:57:08;;;;;;;;;;;27.10;59.70;;;;;;5023391;28;45298;-81
2023/09/11 09:59:34;;;;;;;;;;;27.10;62.00;;;;;;5015677;28;43052;-88
2023/09/11 10:02:00;;;;;;;;;;;26.90;61.30;;;;;;5020461;28;44323;-76
2023/09/11 10:04:26;;;;;;;;;;;26.90;61.90;;;;;;5005006;28;42986;-79
2023/09/11 10:06:53;;;;;;;;;;;27.00;61.20;;;;;;5005142;28;43127;-76
2023/09/11 10:09:19;;;;;;;;;;;27.00;61.80;;;;;;5012181;28;43080;-80
2023/09/11 10:11:45;;;;;;;;;;;27.30;62.20;;;;;;5024103;28;43566;-79
2023/09/11 10:14:10;;;;;;;;;;;26.90;62.00;;;;;;5023394;28;42891;-79
2023/09/11 10:16:36;;;;;;;;;;;27.00;61.90;;;;;;5023965;28;42922;-77
2023/09/11 10:19:02;;;;;;;;;;;26.90;62.00;;;;;;5023528;28;42926;-79
2023/09/11 10:21:28;;;;;;;;;;;26.80;61.90;;;;;;5021548;28;44148;-79
2023/09/11 10:23:54;;;;;;;;;;;26.90;61.80;;;;;;5024098;28;43073;-76
2023/09/11 10:26:23;;;;;;;;;;;27.40;61.70;;;;;;5024050;28;43437;-79
2023/09/11 10:28:49;;;;;;;;;;;27.00;59.60;;;;;;5024121;28;42921;-79
2023/09/11 10:31:26;;;;;;;;;;;26.80;61.90;;;;;;5023895;28;42780;-76
2023/09/11 10:33:55;;;;;;;;;;;26.90;59.60;;;;;;5022980;28;43794;-77
2023/09/11 10:36:22;;;;;;;;;;;27.00;59.60;;;;;;5017816;28;43333;-76
2023/09/11 10:38:48;;;;;;;;;;;27.00;62.20;;;;;;5023667;28;42925;-79
2023/09/11 10:41:14;;;;;;;;;;;26.90;61.80;;;;;;5023814;28;42921;-77
2023/09/11 10:43:39;;;;;;;;;;;26.90;61.80;;;;;;5023413;28;43006;-77
2023/09/11 10:46:15;;;;;;;;;;;27.00;61.70;;;;;;5023423;28;44423;-77
2023/09/11 10:48:40;;;;;;;;;;;27.00;59.30;;;;;;5018902;28;43089;-78
2023/09/11 10:51:06;;;;;;;;;;;27.00;61.50;;;;;;5021490;28;43427;-80
2023/09/11 10:53:32;;;;;;;;;;;27.00;61.60;;;;;;5023574;28;43008;-79
2023/09/11 10:56:00;;;;;;;;;;;27.00;61.20;;;;;;5023616;28;43060;-78
2023/09/11 10:58:26;;;;;;;;;;;27.00;61.20;;;;;;5023699;28;42959;-79
2023/09/11 11:00:53;;;;;;;;;;;27.10;61.80;;;;;;5022437;28;43699;-78
2023/09/11 11:03:18;;;;;;;;;;;27.10;61.30;;;;;;5021149;28;43296;-76
2023/09/11 11:05:44;;;;;;;;;;;27.10;61.00;;;;;;5023636;28;42975;-74
2023/09/11 11:08:10;;;;;;;;;;;27.10;60.70;;;;;;5023697;28;42945;-75
2023/09/11 11:10:39;;;;;;;;;;;27.10;60.20;;;;;;5023712;28;42952;-76
2023/09/11 11:13:06;;;;;;;;;;;27.10;60.80;;;;;;5021305;28;43008;-77
2023/09/11 11:15:32;;;;;;;;;;;27.20;60.80;;;;;;5023275;28;43048;-75
2023/09/11 11:18:04;;;;;;;;;;;27.00;60.80;;;;;;5023815;28;43063;-79
2023/09/11 11:20:30;;;;;;;;;;;27.30;58.70;;;;;;5023639;28;42882;-88
2023/09/11 11:23:04;;;;;;;;;;;27.00;60.50;;;;;;5024011;28;43679;-77
2023/09/11 11:25:30;;;;;;;;;;;27.00;60.50;;;;;;5020101;28;43690;-83
2023/09/11 11:28:00;;;;;;;;;;;27.10;60.80;;;;;;5026967;28;42911;-83
2023/09/11 11:30:26;;;;;;;;;;;27.10;60.40;;;;;;5023940;28;43127;-89
2023/09/11 11:32:53;;;;;;;;;;;27.20;60.40;;;;;;5024221;28;42958;-81
2023/09/11 11:35:18;;;;;;;;;;;27.10;60.30;;;;;;5019700;28;43021;-81
2023/09/11 11:37:44;;;;;;;;;;;27.20;60.40;;;;;;5026242;28;43074;-84
2023/09/11 11:40:10;;;;;;;;;;;27.10;60.50;;;;;;5026280;28;43431;-84
2023/09/11 11:42:40;;;;;;;;;;;27.10;60.30;;;;;;5016919;28;43021;-83
2023/09/11 11:45:06;;;;;;;;;;;27.10;58.10;;;;;;5024911;28;42995;-79
2023/09/11 11:47:31;;;;;;;;;;;27.20;59.80;;;;;;5025954;28;42951;-84
2023/09/11 11:50:05;;;;;;;;;;;27.10;60.50;;;;;;5024571;28;44311;-78
2023/09/11 11:52:31;;;;;;;;;;;27.20;61.20;;;;;;5025422;28;42866;-84
2023/09/11 11:54:56;;;;;;;;;;;27.20;60.80;;;;;;5026294;28;42921;-77
2023/09/11 11:57:23;;;;;;;;;;;27.40;60.90;;;;;;5026665;28;42865;-87
2023/09/11 11:59:51;;;;;;;;;;;27.10;60.40;;;;;;5025749;28;43499;-87
2023/09/11 12:02:22;;;;;;;;;;;27.20;60.30;;;;;;5025017;28;42989;-85
2023/09/11 12:04:50;;;;;;;;;;;27.20;58.20;;;;;;5024581;28;43559;-83
2023/09/11 12:07:15;;;;;;;;;;;27.20;60.10;;;;;;5023570;28;43164;-87
2023/09/11 12:09:41;;;;;;;;;;;27.20;60.10;;;;;;5025438;28;42962;-86
2023/09/11 12:12:07;;;;;;;;;;;27.20;59.60;;;;;;5026250;28;42957;-87
2023/09/11 12:14:33;;;;;;;;;;;27.30;59.90;;;;;;5025936;28;42859;-88
2023/09/11 12:16:58;;;;;;;;;;;27.20;60.00;;;;;;5026293;28;42942;-77
2023/09/11 12:19:24;;;;;;;;;;;27.10;59.90;;;;;;5026578;28;42956;-81
2023/09/11 12:21:54;;;;;;;;;;;27.20;60.10;;;;;;5026614;28;42958;-87
2023/09/11 12:24:20;;;;;;;;;;;27.10;60.00;;;;;;5027007;28;42993;-76
2023/09/11 12:26:45;;;;;;;;;;;27.10;59.80;;;;;;5026651;28;42973;-78
2023/09/11 12:29:11;;;;;;;;;;;27.10;59.70;;;;;;5026398;28;43595;-88
2023/09/11 12:31:36;;;;;;;;;;;27.30;59.70;;;;;;5026521;28;42934;-86
2023/09/11 12:34:02;;;;;;;;;;;27.30;59.70;;;;;;5026116;28;42835;-78
2023/09/11 12:36:28;;;;;;;;;;;27.10;59.50;;;;;;5025840;28;42870;-79
2023/09/11 12:38:53;;;;;;;;;;;27.20;59.40;;;;;;5024918;28;42941;-85
2023/09/11 12:41:20;;;;;;;;;;;27.00;59.70;;;;;;5025756;28;43037;-80
2023/09/11 12:43:46;;;;;;;;;;;27.20;59.40;;;;;;5025688;28;43403;-76
2023/09/11 12:46:12;;;;;;;;;;;27.60;59.60;;;;;;5025558;28;43056;-77
2023/09/11 12:48:44;;;;;;;;;;;27.40;59.30;;;;;;5025979;28;44015;-77
2023/09/11 12:51:09;;;;;;;;;;;27.30;57.20;;;;;;5026249;28;43008;-80
2023/09/11 12:53:35;;;;;;;;;;;27.10;59.20;;;;;;5026001;28;43603;-87
2023/09/11 12:56:01;;;;;;;;;;;27.20;59.10;;;;;;5026147;28;42807;-83
2023/09/11 12:58:27;;;;;;;;;;;27.40;59.40;;;;;;5026001;28;42857;-81
2023/09/11 13:00:52;;;;;;;;;;;27.40;59.30;;;;;;5025979;28;42900;-85
2023/09/11 13:03:19;;;;;;;;;;;27.30;59.00;;;;;;5025763;28;43719;-86
2023/09/11 13:05:44;;;;;;;;;;;27.30;59.00;;;;;;5025915;28;42764;-85
2023/09/11 13:08:10;;;;;;;;;;;27.20;59.30;;;;;;5025173;28;43770;-76
2023/09/11 13:10:35;;;;;;;;;;;27.40;59.80;;;;;;5026064;28;42979;-87
2023/09/11 13:13:01;;;;;;;;;;;27.30;59.30;;;;;;5025692;28;43089;-78
2023/09/11 13:15:26;;;;;;;;;;;27.40;59.20;;;;;;5025143;28;43024;-77
2023/09/11 13:17:52;;;;;;;;;;;27.40;59.10;;;;;;5025275;28;42997;-81
2023/09/11 13:20:17;;;;;;;;;;;27.20;59.10;;;;;;5025913;28;42989;-84
2023/09/11 13:22:43;;;;;;;;;;;27.20;59.20;;;;;;5025646;28;43490;-85
2023/09/11 13:25:09;;;;;;;;;;;27.20;59.10;;;;;;5025485;28;43003;-87
2023/09/11 13:27:34;;;;;;;;;;;27.30;59.00;;;;;;5025274;28;44257;-87
2023/09/11 13:30:00;;;;;;;;;;;27.30;59.20;;;;;;5025694;28;42952;-78
2023/09/11 13:32:25;;;;;;;;;;;27.30;58.90;;;;;;5025698;28;42819;-83
2023/09/11 13:34:51;;;;;;;;;;;27.50;59.20;;;;;;5025524;28;42934;-80
2023/09/11 13:37:16;;;;;;;;;;;27.40;58.90;;;;;;5025021;28;42969;-83
2023/09/11 13:39:43;;;;;;;;;;;27.30;58.60;;;;;;5025248;28;42926;-86
2023/09/11 13:42:08;;;;;;;;;;;27.40;58.70;;;;;;5025127;28;42922;-78
2023/09/11 13:44:34;;;;;;;;;;;27.10;58.90;;;;;;5023423;28;42953;-76
2023/09/11 13:47:00;;;;;;;;;;;27.60;58.90;;;;;;5025065;28;42984;-84
2023/09/11 13:49:26;;;;;;;;;;;27.50;58.80;;;;;;5025162;28;42883;-79
2023/09/11 13:51:52;;;;;;;;;;;27.50;58.60;;;;;;5024696;28;43030;-85
2023/09/11 13:54:18;;;;;;;;;;;27.50;58.60;;;;;;5024644;28;43068;-80
2023/09/11 13:56:43;;;;;;;;;;;27.40;58.00;;;;;;5024861;28;42923;-78
2023/09/11 13:59:09;;;;;;;;;;;27.40;57.90;;;;;;5025285;28;43001;-84
2023/09/11 14:01:34;;;;;;;;;;;27.40;58.50;;;;;;5025374;28;43404;-76
2023/09/11 14:04:00;;;;;;;;;;;27.50;58.50;;;;;;5025127;28;42824;-88
2023/09/11 14:06:25;;;;;;;;;;;27.50;58.50;;;;;;5024701;28;43436;-75
2023/09/11 14:08:51;;;;;;;;;;;27.50;58.30;;;;;;5025030;28;42992;-77
2023/09/11 14:11:16;;;;;;;;;;;27.50;58.20;;;;;;5025159;28;42859;-87